createdAt,value
2023-01-29T00:01:03.807Z,12.7
2023-01-29T00:06:06.029Z,12.1
2023-01-29T00:11:08.206Z,12.1
2023-01-29T00:16:10.260Z,11.7
2023-01-29T00:21:12.343Z,11.6
2023-01-29T00:26:14.426Z,12.2
2023-01-29T00:31:16.722Z,11.3
2023-01-29T00:36:19.742Z,10.5
2023-01-29T00:41:22.353Z,9.8
2023-01-29T00:46:25.769Z,10.7
2023-01-29T00:51:27.928Z,10.6
2023-01-29T00:56:30.000Z,11
2023-01-29T01:01:32.428Z,10.8
2023-01-29T01:06:35.196Z,11.1
2023-01-29T01:11:37.482Z,11.1
2023-01-29T01:16:39.576Z,12.1
2023-01-29T01:21:41.652Z,13.2
2023-01-29T01:26:43.726Z,12.9
2023-01-29T01:31:45.835Z,11.6
2023-01-29T01:36:47.970Z,12.3
2023-01-29T01:41:49.995Z,11.3
2023-01-29T01:46:52.271Z,12.2
2023-01-29T01:51:54.256Z,11.2
2023-01-29T01:56:56.254Z,11.8
2023-01-29T02:01:58.292Z,12.2
2023-01-29T02:07:00.582Z,11.5
2023-01-29T02:12:02.611Z,11.5
2023-01-29T02:17:04.779Z,11.2
2023-01-29T02:22:07.345Z,11.6
2023-01-29T02:27:09.421Z,12.4
2023-01-29T02:32:11.446Z,12.7
2023-01-29T02:37:13.460Z,11.9
2023-01-29T02:42:15.858Z,11.7
2023-01-29T02:47:17.999Z,11.4
2023-01-29T02:52:20.780Z,11.7
2023-01-29T02:57:22.813Z,11.6
2023-01-29T03:02:24.888Z,12.2
2023-01-29T03:07:27.088Z,12.4
2023-01-29T03:12:29.154Z,13.1
2023-01-29T03:17:31.314Z,13.5
2023-01-29T03:22:33.392Z,12
2023-01-29T03:27:35.471Z,12.8
2023-01-29T03:32:37.655Z,12
2023-01-29T03:37:39.704Z,12.5
2023-01-29T03:42:43.180Z,11.1
2023-01-29T03:47:45.564Z,12.1
2023-01-29T03:52:47.607Z,11.3
2023-01-29T03:57:49.839Z,11.7
2023-01-29T04:02:51.833Z,11.9
2023-01-29T04:07:53.816Z,11.1
2023-01-29T04:12:55.851Z,24.4
2023-01-29T04:17:56.358Z,11.4
2023-01-29T04:22:58.308Z,12
2023-01-29T04:28:00.368Z,13.3
2023-01-29T04:33:02.446Z,12.2
2023-01-29T04:38:04.463Z,12.2
2023-01-29T04:43:06.404Z,11.8
2023-01-29T04:48:09.062Z,11.1
2023-01-29T04:53:11.326Z,10.8
2023-01-29T04:58:13.387Z,14.1
2023-01-29T05:03:15.449Z,10.6
2023-01-29T05:08:17.754Z,12.1
2023-01-29T05:13:19.842Z,11.1
2023-01-29T05:18:24.277Z,10.8
2023-01-29T05:23:26.660Z,10.5
2023-01-29T05:28:28.954Z,10.9
2023-01-29T05:33:30.964Z,11.2
2023-01-29T05:38:32.972Z,10.8
2023-01-29T05:43:35.200Z,10.1
2023-01-29T05:48:38.273Z,11.4
2023-01-29T05:53:40.250Z,11.3
2023-01-29T05:58:42.312Z,10.7
2023-01-29T06:03:44.388Z,10.8
2023-01-29T06:08:46.397Z,34.4
2023-01-29T06:13:48.459Z,14.6
2023-01-29T06:18:50.525Z,11.4
2023-01-29T06:23:52.724Z,14.2
2023-01-29T06:28:55.431Z,13.9
2023-01-29T06:33:57.426Z,22.5
2023-01-29T06:38:59.426Z,21.3
2023-01-29T06:44:01.561Z,22.7
2023-01-29T06:49:03.772Z,25.6
2023-01-29T06:54:05.839Z,27.5
2023-01-29T06:59:07.778Z,25.9
2023-01-29T07:04:09.818Z,28.9
2023-01-29T07:09:12.043Z,34
2023-01-29T07:14:14.035Z,35
2023-01-29T07:19:16.059Z,33.7
2023-01-29T07:24:18.557Z,36.4
2023-01-29T07:29:21.460Z,39
2023-01-29T07:34:24.046Z,36.2
2023-01-29T07:39:26.068Z,35.7
2023-01-29T07:44:28.450Z,34.6
2023-01-29T07:49:31.101Z,35.8
2023-01-29T07:54:33.741Z,67.2
2023-01-29T07:59:34.617Z,38.4
2023-01-29T08:04:36.886Z,37.4
2023-01-29T08:09:39.518Z,40
2023-01-29T08:14:41.731Z,38.3
2023-01-29T08:19:43.861Z,37.3
2023-01-29T08:24:53.223Z,35.1
2023-01-29T08:29:49.451Z,36.8
2023-01-29T08:34:51.553Z,37.6
2023-01-29T08:39:53.782Z,34.8
2023-01-29T08:44:56.452Z,36.4
2023-01-29T08:49:59.497Z,35.7
2023-01-29T08:55:01.860Z,34.4
2023-01-29T09:00:04.010Z,31.1
2023-01-29T09:05:06.297Z,30.3
2023-01-29T09:10:08.530Z,30.3
2023-01-29T09:15:10.479Z,29.2
2023-01-29T09:20:12.866Z,28.3
2023-01-29T09:25:15.671Z,30.5
2023-01-29T09:30:20.116Z,30.7
2023-01-29T09:35:22.958Z,26.5
2023-01-29T09:40:25.661Z,30
2023-01-29T09:45:29.911Z,25.3
2023-01-29T09:50:34.349Z,26.6
2023-01-29T09:55:37.032Z,26
2023-01-29T10:00:40.304Z,27.2
2023-01-29T10:05:43.097Z,25.5
2023-01-29T10:10:46.660Z,26.2
2023-01-29T10:15:49.579Z,26.7
2023-01-29T10:20:55.661Z,28.1
2023-01-29T10:25:59.569Z,27.5
2023-01-29T10:31:02.455Z,25.6
2023-01-29T10:36:05.741Z,20.7
2023-01-29T10:41:08.445Z,21
2023-01-29T10:46:13.413Z,22.5
2023-01-29T10:51:16.412Z,23.2
2023-01-29T10:56:22.929Z,25.4
2023-01-29T11:01:25.936Z,23
2023-01-29T11:06:28.904Z,21.8
2023-01-29T11:11:31.226Z,21.6
2023-01-29T11:16:33.605Z,21.3
2023-01-29T11:21:35.871Z,21.3
2023-01-29T11:26:38.374Z,22.6
2023-01-29T11:31:40.728Z,20.6
2023-01-29T11:36:43.083Z,22.5
2023-01-29T11:41:45.052Z,21.3
2023-01-29T11:46:47.412Z,21.8
2023-01-29T11:51:50.177Z,20.3
2023-01-29T11:56:52.330Z,19.4
2023-01-29T12:01:54.410Z,19.4
2023-01-29T12:06:56.646Z,22.2
2023-01-29T12:11:58.818Z,22.9
2023-01-29T12:17:03.608Z,22.4
2023-01-29T12:22:05.943Z,20.8
2023-01-29T12:27:08.183Z,19.1
2023-01-29T12:32:10.279Z,16.7
2023-01-29T12:37:13.025Z,14.6
2023-01-29T12:42:15.323Z,15.3
2023-01-29T12:47:17.443Z,13.8
2023-01-29T12:52:20.768Z,13.5
2023-01-29T12:57:23.372Z,13.7
2023-01-29T13:02:26.097Z,13.9
2023-01-29T13:07:28.607Z,13.4
2023-01-29T13:12:30.992Z,12.3
2023-01-29T13:17:33.455Z,13.4
2023-01-29T13:22:36.189Z,12.4
2023-01-29T13:27:39.211Z,12.4
2023-01-29T13:32:41.451Z,12.2
2023-01-29T13:37:43.589Z,14.6
2023-01-29T13:42:45.694Z,13.2
2023-01-29T13:47:47.676Z,13.8
2023-01-29T13:52:49.748Z,13.9
2023-01-29T13:57:54.033Z,13.5
2023-01-29T14:02:58.019Z,13.5
2023-01-29T14:08:00.044Z,13.1
2023-01-29T14:13:02.245Z,12.7
2023-01-29T14:18:04.462Z,12.4
2023-01-29T14:23:06.431Z,12.4
2023-01-29T14:28:08.701Z,11.5
2023-01-29T14:33:14.059Z,12.4
2023-01-29T14:38:16.140Z,11.9
2023-01-29T14:43:18.111Z,12.4
2023-01-29T14:48:20.788Z,11.2
2023-01-29T14:53:21.828Z,13.2
2023-01-29T14:58:24.030Z,13.1
2023-01-29T15:03:26.132Z,12
2023-01-29T15:08:29.077Z,14.1
2023-01-29T15:13:31.404Z,12.6
2023-01-29T15:18:33.740Z,12.8
2023-01-29T15:23:35.916Z,12
2023-01-29T15:28:38.310Z,9.6
2023-01-29T15:33:43.644Z,7.7
2023-01-29T15:38:46.615Z,7.5
2023-01-29T15:43:48.652Z,8.4
2023-01-29T15:48:50.871Z,8
2023-01-29T15:53:54.124Z,7.6
2023-01-29T15:58:56.484Z,8.1
2023-01-29T16:03:59.480Z,8
2023-01-29T16:09:02.512Z,9.1
2023-01-29T16:14:04.558Z,8.1
2023-01-29T16:19:07.531Z,9.1
2023-01-29T16:24:10.019Z,12.7
2023-01-29T16:29:12.595Z,11.4
2023-01-29T16:34:15.187Z,11.2
2023-01-29T16:39:18.490Z,10.7
2023-01-29T16:44:21.215Z,11.9
2023-01-29T16:49:23.440Z,10
2023-01-29T16:54:25.566Z,11.9
2023-01-29T16:59:27.696Z,11
2023-01-29T17:04:30.267Z,10.3
2023-01-29T17:09:34.707Z,11.4
2023-01-29T17:14:37.208Z,11.6
2023-01-29T17:19:40.197Z,10.5
2023-01-29T17:24:43.372Z,11.1
2023-01-29T17:27:19.529Z,11.9
2023-01-29T17:30:53.592Z,11.5
2023-01-29T17:34:23.318Z,8.8
2023-01-29T17:36:49.699Z,10
2023-01-29T17:41:52.075Z,32.1
2023-01-29T17:46:52.983Z,22.2
2023-01-29T17:51:54.066Z,20
2023-01-29T17:56:54.700Z,19.9
2023-01-29T18:01:55.255Z,18.9
2023-01-29T18:06:56.072Z,19.2
2023-01-29T18:11:56.546Z,18.2
2023-01-29T18:16:57.402Z,17.8
2023-01-29T18:21:58.736Z,22.6
2023-01-29T18:26:59.177Z,18.2
2023-01-29T18:31:59.729Z,20.8
2023-01-29T18:37:00.165Z,18.5
2023-01-29T18:42:00.675Z,20.8
2023-01-29T18:47:01.088Z,19.7
2023-01-29T18:52:01.477Z,22.7
2023-01-29T18:57:04.157Z,22.2
2023-01-29T19:02:03.095Z,23.9
2023-01-29T19:07:05.829Z,23
2023-01-29T19:12:06.442Z,20.1
2023-01-29T19:17:07.252Z,21.5
2023-01-29T19:22:07.885Z,38.1
2023-01-29T19:27:08.352Z,22.7
2023-01-29T19:32:08.930Z,32.8
2023-01-29T19:37:09.786Z,22
2023-01-29T19:42:13.247Z,21.6
2023-01-29T19:47:14.702Z,22.6
2023-01-29T19:52:15.424Z,22.6
2023-01-29T19:57:16.035Z,24.9
2023-01-29T20:02:16.646Z,25.8
2023-01-29T20:07:17.356Z,31.4
2023-01-29T20:12:18.217Z,26.4
2023-01-29T20:17:18.703Z,29.5
2023-01-29T20:22:19.149Z,27.9
2023-01-29T20:27:19.750Z,25.5
2023-01-29T20:32:20.208Z,28.4
2023-01-29T20:37:20.657Z,29.5
2023-01-29T20:42:21.140Z,28.1
2023-01-29T20:47:21.918Z,28.3
2023-01-29T20:52:22.359Z,27.9
2023-01-29T20:57:23.652Z,26.4
2023-01-29T21:02:24.251Z,23.2
2023-01-29T21:07:24.821Z,24.3
2023-01-29T21:12:25.531Z,25.1
2023-01-29T21:17:28.037Z,47.8
2023-01-29T21:22:28.643Z,26.5
2023-01-29T21:27:29.190Z,25.4
2023-01-29T21:32:29.831Z,26
2023-01-29T21:37:30.461Z,38.6
2023-01-29T21:42:31.287Z,25.7
2023-01-29T21:47:31.736Z,24.6
2023-01-29T21:52:32.271Z,25.9
2023-01-29T21:57:33.031Z,26.9
2023-01-29T22:02:33.647Z,26.9
2023-01-29T22:07:34.197Z,26.8
2023-01-29T22:12:34.785Z,28.1
2023-01-29T22:17:35.289Z,25.1
2023-01-29T22:22:35.779Z,25.2
2023-01-29T22:27:36.650Z,24.4
2023-01-29T22:32:37.160Z,25.9
2023-01-29T22:37:37.848Z,23.7
2023-01-29T22:42:38.363Z,25.2
2023-01-29T22:47:38.837Z,22.5
2023-01-29T22:52:39.289Z,25
2023-01-29T22:57:39.956Z,23.7
2023-01-29T23:02:40.426Z,23.8
2023-01-29T23:07:40.923Z,23.8
2023-01-29T23:12:41.471Z,26.6
2023-01-29T23:17:41.930Z,25.5
2023-01-29T23:22:42.692Z,28.2
2023-01-29T23:27:43.424Z,25
2023-01-29T23:32:44.174Z,24.1
2023-01-29T23:37:44.723Z,28.5
2023-01-29T23:42:45.407Z,24.1
2023-01-29T23:47:45.849Z,24.1
2023-01-29T23:52:46.305Z,26.4
2023-01-29T23:57:47.231Z,27.4
